Time;durP1;ratioP1;P1;durP2;ratioP2;P2;SDS_P1;SDS_P2;PMS_P1;PMS_P2;Temp;Humidity;BMP_temperature;BMP_pressure;BME280_temperature;BME280_humidity;BME280_pressure;Samples;Min_cycle;Max_cycle;Signal;HPM_P1;HPM_P2
2023/08/05 00:02:29;;;;;;;7.40;3.95;;;;;;;16.88;100.00;101612.00;5271584;28;20028;-75
2023/08/05 00:05:00;;;;;;;5.88;4.18;;;;;;;16.87;100.00;101608.53;5271710;28;20056;-75
2023/08/05 00:07:31;;;;;;;4.63;3.90;;;;;;;16.85;100.00;101610.47;5270867;28;20113;-74
2023/08/05 00:10:03;;;;;;;4.95;3.35;;;;;;;16.80;100.00;101598.72;5272511;28;20020;-74
2023/08/05 00:12:34;;;;;;;5.72;3.63;;;;;;;16.85;100.00;101604.38;5273241;28;20523;-76
2023/08/05 00:15:06;;;;;;;5.07;4.15;;;;;;;16.85;100.00;101591.97;5273755;28;20241;-74
2023/08/05 00:17:38;;;;;;;4.87;3.73;;;;;;;16.85;100.00;101596.44;5272006;28;20123;-75
2023/08/05 00:20:11;;;;;;;6.55;4.45;;;;;;;16.86;100.00;101596.28;5272633;28;20111;-74
2023/08/05 00:22:43;;;;;;;5.10;4.20;;;;;;;16.83;100.00;101591.28;5273881;28;20032;-74
2023/08/05 00:25:14;;;;;;;6.43;3.80;;;;;;;16.86;100.00;101590.13;5279488;28;20027;-74
2023/08/05 00:27:45;;;;;;;5.63;4.00;;;;;;;16.86;100.00;101585.69;5275318;28;20400;-74
2023/08/05 00:30:16;;;;;;;7.85;4.10;;;;;;;16.87;100.00;101589.19;5254550;28;20047;-74
2023/08/05 00:32:48;;;;;;;4.90;3.78;;;;;;;16.88;100.00;101588.19;5273424;28;20028;-75
2023/08/05 00:35:20;;;;;;;6.22;4.40;;;;;;;16.87;100.00;101583.88;5272217;28;20124;-74
2023/08/05 00:37:51;;;;;;;5.63;3.90;;;;;;;16.86;100.00;101584.84;5272700;28;20025;-74
2023/08/05 00:40:22;;;;;;;5.13;4.05;;;;;;;16.88;100.00;101578.41;5273278;28;20051;-75
2023/08/05 00:42:54;;;;;;;6.82;4.65;;;;;;;16.92;100.00;101582.41;5277459;28;20085;-74
2023/08/05 00:45:25;;;;;;;6.37;4.77;;;;;;;16.92;100.00;101579.78;5278272;28;20017;-74
2023/08/05 00:47:57;;;;;;;6.15;4.22;;;;;;;16.83;100.00;101578.06;5276333;28;20298;-76
2023/08/05 00:50:30;;;;;;;4.35;3.92;;;;;;;16.78;100.00;101575.03;5276526;28;20102;-74
2023/08/05 00:53:02;;;;;;;6.43;4.38;;;;;;;16.77;100.00;101571.56;5278476;28;20028;-75
2023/08/05 00:55:33;;;;;;;6.72;4.63;;;;;;;16.74;100.00;101558.66;5277094;28;20398;-75
2023/08/05 00:58:05;;;;;;;5.28;4.20;;;;;;;16.59;100.00;101531.00;5275859;28;20081;-74
2023/08/05 01:00:36;;;;;;;5.65;4.50;;;;;;;16.68;100.00;101550.44;5277284;28;20496;-74
2023/08/05 01:03:07;;;;;;;6.95;4.85;;;;;;;16.75;100.00;101556.84;5275389;28;20366;-75
2023/08/05 01:05:39;;;;;;;8.05;4.50;;;;;;;16.75;100.00;101562.13;5273789;28;20468;-76
2023/08/05 01:08:11;;;;;;;7.90;5.10;;;;;;;16.67;100.00;101546.97;5273167;28;20082;-74
2023/08/05 01:10:43;;;;;;;9.33;5.03;;;;;;;16.69;100.00;101558.22;5275560;28;20028;-74
2023/08/05 01:13:14;;;;;;;5.97;5.20;;;;;;;16.67;100.00;101549.63;5277046;28;20028;-74
2023/08/05 01:15:46;;;;;;;9.10;4.40;;;;;;;16.60;100.00;101545.94;5274596;28;20037;-74
2023/08/05 01:18:18;;;;;;;5.40;4.80;;;;;;;16.50;100.00;101538.06;5277227;28;20085;-74
2023/08/05 01:20:53;;;;;;;7.65;4.85;;;;;;;16.52;100.00;101537.91;5275380;28;20282;-75
2023/08/05 01:23:35;;;;;;;5.93;4.45;;;;;;;16.65;100.00;101548.09;5275402;28;20035;-74
2023/08/05 01:26:09;;;;;;;6.38;4.82;;;;;;;16.67;100.00;101540.88;5276081;28;20046;-74
2023/08/05 01:28:41;;;;;;;8.57;5.47;;;;;;;16.44;100.00;101545.75;5275567;28;20484;-74
2023/08/05 01:31:15;;;;;;;7.03;4.80;;;;;;;16.53;100.00;101550.16;5275480;28;20028;-74
2023/08/05 01:33:47;;;;;;;6.53;4.95;;;;;;;16.50;100.00;101547.81;5275795;28;20031;-74
2023/08/05 01:36:21;;;;;;;9.20;4.97;;;;;;;16.63;100.00;101552.69;5276578;28;20063;-75
2023/08/05 01:38:53;;;;;;;7.13;5.03;;;;;;;16.51;100.00;101544.16;5275328;28;20027;-75
2023/08/05 01:41:24;;;;;;;7.22;4.90;;;;;;;16.43;100.00;101536.16;5275933;28;20592;-74
2023/08/05 01:43:56;;;;;;;5.68;5.18;;;;;;;16.50;100.00;101535.41;5276487;28;20402;-74
2023/08/05 01:46:27;;;;;;;6.95;4.80;;;;;;;16.44;100.00;101533.38;5275233;28;20564;-75
2023/08/05 01:48:58;;;;;;;6.10;4.90;;;;;;;16.47;100.00;101537.53;5276595;28;20036;-75
2023/08/05 01:51:29;;;;;;;7.65;5.30;;;;;;;16.15;100.00;101504.53;5276605;28;20093;-74
2023/08/05 01:54:01;;;;;;;7.35;5.32;;;;;;;16.37;100.00;101548.19;5274820;28;20048;-74
2023/08/05 01:56:32;;;;;;;7.40;5.28;;;;;;;16.41;100.00;101552.19;5275142;28;20073;-75
2023/08/05 01:59:03;;;;;;;6.75;5.53;;;;;;;16.39;100.00;101548.03;5275768;28;20032;-75
2023/08/05 02:01:45;;;;;;;5.40;4.90;;;;;;;16.56;100.00;101541.91;5275746;28;20020;-75
2023/08/05 02:04:16;;;;;;;8.05;5.30;;;;;;;16.27;100.00;101542.13;5276179;28;20515;-74
2023/08/05 02:06:48;;;;;;;6.85;5.45;;;;;;;16.29;100.00;101541.03;5276196;28;20100;-75
2023/08/05 02:09:19;;;;;;;5.97;5.30;;;;;;;16.23;100.00;101541.59;5275971;28;20060;-77
2023/08/05 02:11:50;;;;;;;8.77;5.65;;;;;;;16.22;100.00;101539.13;5275514;28;20090;-74
2023/08/05 02:14:22;;;;;;;5.93;5.43;;;;;;;16.20;100.00;101546.34;5276861;28;20046;-74
2023/08/05 02:16:53;;;;;;;7.82;5.75;;;;;;;16.27;100.00;101542.97;5273658;28;20031;-74
2023/08/05 02:19:24;;;;;;;7.38;5.60;;;;;;;16.21;100.00;101532.16;5274736;28;20042;-74
2023/08/05 02:21:55;;;;;;;6.53;5.47;;;;;;;16.19;100.00;101545.53;5275699;28;20024;-76
2023/08/05 02:24:27;;;;;;;8.35;6.13;;;;;;;16.16;100.00;101540.53;5273327;28;20059;-74
2023/08/05 02:26:58;;;;;;;7.10;5.88;;;;;;;16.11;100.00;101539.34;5275647;28;20412;-74
2023/08/05 02:29:29;;;;;;;7.00;5.70;;;;;;;16.10;100.00;101540.28;5275001;28;20024;-74
2023/08/05 02:32:02;;;;;;;9.45;5.90;;;;;;;16.04;100.00;101536.44;5274834;28;20113;-75
2023/08/05 02:34:35;;;;;;;6.60;5.82;;;;;;;15.97;100.00;101527.44;5275510;28;20020;-74
2023/08/05 02:37:06;;;;;;;;;;;;;;;16.85;100.00;101525.78;5276607;28;20542;-76
2023/08/05 02:39:40;;;;;;;7.40;6.20;;;;;;;15.99;100.00;101510.47;5280427;28;19998;-76
2023/08/05 02:42:11;;;;;;;7.07;6.38;;;;;;;15.81;100.00;101505.16;5275357;28;20050;-74
2023/08/05 02:44:43;;;;;;;7.43;6.40;;;;;;;15.96;100.00;101520.50;5274183;28;20077;-75
2023/08/05 02:47:14;;;;;;;7.70;6.20;;;;;;;15.95;100.00;101518.84;5274529;28;20107;-74
2023/08/05 02:49:45;;;;;;;7.78;6.15;;;;;;;15.90;100.00;101515.81;5275080;28;20028;-74
2023/08/05 02:52:16;;;;;;;7.93;6.90;;;;;;;15.85;100.00;101515.44;5273284;28;20342;-74
2023/08/05 02:54:48;;;;;;;7.28;6.50;;;;;;;15.81;100.00;101517.53;5274966;28;20028;-74
2023/08/05 02:57:19;;;;;;;8.48;6.22;;;;;;;15.78;100.00;101509.91;5273047;28;20027;-75
2023/08/05 02:59:50;;;;;;;8.05;6.68;;;;;;;15.67;100.00;101500.34;5274378;28;20025;-74
2023/08/05 03:02:21;;;;;;;7.35;6.38;;;;;;;15.73;100.00;101504.25;5274180;28;20020;-73
2023/08/05 03:04:53;;;;;;;7.78;6.63;;;;;;;15.73;100.00;101526.19;5271270;28;20071;-73
2023/08/05 03:07:24;;;;;;;7.20;6.50;;;;;;;15.69;100.00;101510.78;5274521;28;20036;-76
2023/08/05 03:09:55;;;;;;;7.18;6.47;;;;;;;15.69;100.00;101500.22;5274543;28;20039;-74
2023/08/05 03:12:27;;;;;;;8.15;6.82;;;;;;;15.68;100.00;101487.97;5273744;28;20378;-75
2023/08/05 03:14:58;;;;;;;8.27;6.38;;;;;;;15.74;100.00;101480.31;5274719;28;20513;-77
2023/08/05 03:17:29;;;;;;;8.60;7.07;;;;;;;15.73;100.00;101485.75;5250491;28;20473;-74
2023/08/05 03:20:05;;;;;;;8.20;6.35;;;;;;;15.84;100.00;101488.19;5229821;22;20200;-69
2023/08/05 03:22:36;;;;;;;7.40;6.68;;;;;;;15.66;100.00;101484.66;5224252;28;20386;-70
2023/08/05 03:25:07;;;;;;;8.20;7.00;;;;;;;15.67;100.00;101484.50;5220350;28;20037;-69
2023/08/05 03:27:39;;;;;;;8.20;6.60;;;;;;;15.70;100.00;101475.47;5229906;28;20079;-69
2023/08/05 03:30:10;;;;;;;8.80;7.28;;;;;;;15.71;100.00;101477.94;5241568;28;20041;-70
2023/08/05 03:32:41;;;;;;;9.63;7.28;;;;;;;15.61;100.00;101471.88;5221511;23;20088;-75
2023/08/05 03:35:13;;;;;;;8.32;7.10;;;;;;;15.64;100.00;101474.19;5211576;28;20034;-76
2023/08/05 03:37:45;;;;;;;10.60;7.03;;;;;;;15.58;100.00;101477.44;5225857;28;20040;-75
2023/08/05 03:40:16;;;;;;;8.55;6.90;;;;;;;15.62;100.00;101473.53;5220552;28;20029;-73
2023/08/05 03:42:47;;;;;;;9.43;6.93;;;;;;;15.62;100.00;101473.53;5235775;28;20025;-74
2023/08/05 03:45:19;;;;;;;9.35;7.63;;;;;;;15.62;100.00;101460.31;5235301;28;20032;-74
2023/08/05 03:47:51;;;;;;;8.18;7.38;;;;;;;15.60;100.00;101451.69;5238510;28;20033;-73
2023/08/05 03:50:23;;;;;;;12.47;7.80;;;;;;;15.62;100.00;101449.75;5243676;28;20465;-77
2023/08/05 03:52:55;;;;;;;7.88;7.00;;;;;;;15.64;100.00;101452.25;5237867;28;20366;-75
2023/08/05 03:55:26;;;;;;;8.93;7.95;;;;;;;15.66;100.00;101445.88;5236952;28;20116;-76
2023/08/05 03:57:58;;;;;;;10.50;7.78;;;;;;;15.60;100.00;101443.78;5235988;28;20099;-73
2023/08/05 04:00:29;;;;;;;9.20;8.05;;;;;;;15.62;100.00;101441.84;5239942;28;20021;-75
2023/08/05 04:03:00;;;;;;;7.78;7.07;;;;;;;15.62;100.00;101436.56;5240348;28;20086;-75
2023/08/05 04:05:31;;;;;;;8.15;7.35;;;;;;;15.62;100.00;101431.28;5216595;28;20043;-75
2023/08/05 04:08:03;;;;;;;10.20;7.93;;;;;;;15.65;100.00;101438.94;5234658;28;20067;-74
2023/08/05 04:10:35;;;;;;;8.43;7.63;;;;;;;15.56;100.00;101426.56;5239230;28;20040;-73
2023/08/05 04:13:11;;;;;;;11.10;8.50;;;;;;;15.63;100.00;101437.38;5220663;28;20129;-73
2023/08/05 04:15:42;;;;;;;8.93;8.13;;;;;;;15.55;100.00;101432.84;5240033;28;20021;-73
2023/08/05 04:18:13;;;;;;;9.32;8.20;;;;;;;15.52;100.00;101446.34;5241784;28;20032;-74
2023/08/05 04:20:46;;;;;;;8.35;7.55;;;;;;;15.50;100.00;101449.13;5241815;28;20025;-73
2023/08/05 04:23:21;;;;;;;9.37;7.97;;;;;;;15.49;100.00;101422.84;5238704;28;20021;-75
2023/08/05 04:25:52;;;;;;;9.85;8.05;;;;;;;15.47;100.00;101412.47;5235432;28;20292;-76
2023/08/05 04:28:24;;;;;;;9.48;7.20;;;;;;;15.46;100.00;101404.69;5237996;28;20095;-73
2023/08/05 04:30:57;;;;;;;9.88;7.72;;;;;;;15.48;100.00;101400.09;5241262;28;20017;-77
2023/08/05 04:33:28;;;;;;;8.68;7.72;;;;;;;15.46;100.00;101399.41;5214954;28;20044;-76
2023/08/05 04:36:00;;;;;;;8.90;7.40;;;;;;;15.50;100.00;101398.97;5232740;28;20013;-74
2023/08/05 04:38:31;;;;;;;9.23;8.15;;;;;;;15.44;100.00;101406.63;5244528;28;20061;-73
2023/08/05 04:41:02;;;;;;;10.93;8.32;;;;;;;15.49;100.00;101396.44;5235255;28;20397;-74
2023/08/05 04:43:33;;;;;;;8.10;7.30;;;;;;;15.47;100.00;101396.63;5233932;28;20450;-73
2023/08/05 04:46:05;;;;;;;8.63;7.80;;;;;;;15.47;100.00;101385.22;5241227;28;20045;-73
2023/08/05 04:48:36;;;;;;;9.15;8.25;;;;;;;15.47;100.00;101383.41;5233122;28;20036;-74
2023/08/05 04:51:07;;;;;;;9.68;7.80;;;;;;;15.47;100.00;101385.22;5237665;28;20035;-73
2023/08/05 04:53:38;;;;;;;8.52;7.63;;;;;;;15.38;100.00;101379.03;5243203;28;20013;-77
2023/08/05 04:56:10;;;;;;;9.30;8.02;;;;;;;15.45;100.00;101387.16;5223537;28;20025;-73
2023/08/05 04:58:41;;;;;;;8.25;7.38;;;;;;;15.44;100.00;101393.44;5246134;28;20083;-74
2023/08/05 05:01:13;;;;;;;9.43;8.05;;;;;;;15.41;100.00;101389.28;5222871;28;20037;-73
2023/08/05 05:03:49;;;;;;;11.80;7.72;;;;;;;15.43;100.00;101383.88;5237900;28;20031;-74
2023/08/05 05:06:20;;;;;;;11.13;7.65;;;;;;;15.39;100.00;101388.59;5240118;28;20054;-75
2023/08/05 05:08:51;;;;;;;8.93;8.13;;;;;;;15.39;100.00;101380.69;5244509;28;20029;-73
2023/08/05 05:11:23;;;;;;;9.68;8.68;;;;;;;15.45;100.00;101384.53;5230629;28;20029;-76
2023/08/05 05:13:56;;;;;;;8.43;7.63;;;;;;;15.39;100.00;101375.41;5224209;28;20032;-73
2023/08/05 05:16:27;;;;;;;8.95;8.13;;;;;;;15.47;100.00;101382.59;5241028;28;20026;-76
2023/08/05 05:18:58;;;;;;;9.13;8.20;;;;;;;15.42;100.00;101380.41;5238225;28;20037;-73
2023/08/05 05:21:30;;;;;;;9.68;8.07;;;;;;;15.45;100.00;101372.16;5242246;28;20025;-76
2023/08/05 05:24:01;;;;;;;9.38;7.60;;;;;;;15.47;100.00;101377.31;5242189;28;20511;-75
2023/08/05 05:26:33;;;;;;;16.58;9.65;;;;;;;15.54;100.00;101381.00;5241275;28;20363;-73
2023/08/05 05:29:04;;;;;;;11.18;8.52;;;;;;;15.56;100.00;101381.69;5245576;28;20079;-73
2023/08/05 05:31:35;;;;;;;9.07;8.18;;;;;;;15.57;100.00;101376.25;5250517;28;20136;-73
2023/08/05 05:34:06;;;;;;;9.07;8.18;;;;;;;15.63;100.00;101374.00;5239387;28;20048;-73
2023/08/05 05:36:38;;;;;;;9.82;8.93;;;;;;;15.66;100.00;101371.91;5243702;28;20025;-73
2023/08/05 05:39:09;;;;;;;12.75;9.32;;;;;;;15.70;100.00;101361.88;5243297;28;20045;-73
2023/08/05 05:41:40;;;;;;;12.27;9.48;;;;;;;15.75;100.00;101363.06;5250055;28;20470;-73
2023/08/05 05:44:12;;;;;;;11.02;9.15;;;;;;;15.79;100.00;101359.16;5230582;28;20079;-74
2023/08/05 05:46:43;;;;;;;9.07;7.72;;;;;;;15.82;100.00;101353.56;5237731;28;20032;-73
2023/08/05 05:49:15;;;;;;;10.82;9.30;;;;;;;15.96;100.00;101356.66;5236462;28;20032;-76
2023/08/05 05:51:47;;;;;;;9.93;8.93;;;;;;;15.98;100.00;101357.31;5247849;28;20028;-73
2023/08/05 05:54:18;;;;;;;11.23;9.32;;;;;;;16.08;100.00;101360.72;5227430;28;20559;-76
2023/08/05 05:56:50;;;;;;;9.90;8.90;;;;;;;16.12;100.00;101366.53;5240234;28;20037;-73
2023/08/05 05:59:21;;;;;;;10.07;9.07;;;;;;;16.18;100.00;101363.28;5241876;28;20029;-76
2023/08/05 06:01:52;;;;;;;11.95;8.90;;;;;;;16.26;100.00;101356.22;5237939;28;20024;-74
2023/08/05 06:04:27;;;;;;;10.55;9.27;;;;;;;16.23;100.00;101345.13;5234654;28;20029;-73
2023/08/05 06:07:01;;;;;;;9.43;8.32;;;;;;;16.29;100.00;101345.34;5241684;28;20033;-74
2023/08/05 06:09:32;;;;;;;10.70;9.60;;;;;;;16.32;100.00;101344.19;5241747;28;20029;-74
2023/08/05 06:12:04;;;;;;;9.43;8.52;;;;;;;16.38;100.00;101343.59;5245024;28;20090;-75
2023/08/05 06:14:36;;;;;;;9.40;8.38;;;;;;;16.48;100.00;101338.19;5241285;28;20488;-75
2023/08/05 06:17:08;;;;;;;11.13;8.05;;;;;;;16.51;100.00;101341.34;5247403;28;20107;-74
2023/08/05 06:19:39;;;;;;;10.82;7.35;;;;;;;16.61;100.00;101345.69;5235564;28;20147;-73
2023/08/05 06:22:10;;;;;;;10.23;7.60;;;;;;;16.71;100.00;101349.06;5235280;28;20387;-77
2023/08/05 06:24:42;;;;;;;8.82;7.60;;;;;;;16.71;100.00;101344.59;5241394;28;20471;-75
2023/08/05 06:27:13;;;;;;;10.63;8.02;;;;;;;16.86;100.00;101336.06;5244387;28;20047;-73
2023/08/05 06:29:44;;;;;;;8.23;7.43;;;;;;;16.94;100.00;101338.78;5239923;28;20040;-73
2023/08/05 06:32:16;;;;;;;9.60;7.20;;;;;;;16.92;100.00;101333.63;5243797;28;20052;-73
2023/08/05 06:34:47;;;;;;;8.98;7.63;;;;;;;16.99;100.00;101344.41;5246962;28;20032;-76
2023/08/05 06:37:18;;;;;;;7.57;6.63;;;;;;;17.01;100.00;101340.63;5236279;28;20490;-74
2023/08/05 06:39:49;;;;;;;10.18;8.00;;;;;;;17.09;100.00;101344.28;5222342;28;20025;-77
2023/08/05 06:42:23;;;;;;;8.77;6.70;;;;;;;17.18;100.00;101336.19;5237564;28;20754;-73
2023/08/05 06:44:55;;;;;;;8.63;7.03;;;;;;;17.20;100.00;101326.28;5243053;28;20505;-74
2023/08/05 06:47:31;;;;;;;7.20;6.50;;;;;;;17.19;100.00;101321.13;5227776;28;20029;-73
2023/08/05 06:50:07;;;;;;;9.05;7.22;;;;;;;17.36;100.00;101336.09;5244198;28;20111;-73
2023/08/05 06:52:38;;;;;;;10.32;7.10;;;;;;;17.33;100.00;101330.28;5238004;28;20044;-74
2023/08/05 06:55:10;;;;;;;8.60;7.75;;;;;;;17.37;100.00;101326.31;5241877;28;20313;-73
2023/08/05 06:57:42;;;;;;;8.55;7.60;;;;;;;17.43;100.00;101325.69;5235174;28;20025;-76
2023/08/05 07:00:14;;;;;;;8.60;7.70;;;;;;;17.55;100.00;101316.41;5241262;28;20087;-73
2023/08/05 07:02:45;;;;;;;8.82;7.78;;;;;;;17.71;100.00;101313.75;5246010;28;20112;-74
2023/08/05 07:05:17;;;;;;;11.10;7.10;;;;;;;17.79;100.00;101312.16;5227617;28;20442;-74
2023/08/05 07:07:49;;;;;;;9.82;7.70;;;;;;;17.81;100.00;101312.81;5239330;28;20539;-73
2023/08/05 07:10:20;;;;;;;7.43;6.63;;;;;;;17.92;100.00;101305.34;5245309;28;20021;-73
2023/08/05 07:12:52;;;;;;;10.02;6.63;;;;;;;17.93;100.00;101301.69;5241324;28;20292;-75
2023/08/05 07:15:23;;;;;;;9.05;6.63;;;;;;;18.08;100.00;101309.00;5242696;28;20029;-73
2023/08/05 07:17:54;;;;;;;6.43;5.83;;;;;;;18.33;100.00;101312.41;5245190;28;20456;-76
2023/08/05 07:20:26;;;;;;;9.57;6.20;;;;;;;18.42;100.00;101312.22;5236664;28;20667;-73
2023/08/05 07:22:57;;;;;;;11.30;6.82;;;;;;;18.47;100.00;101298.44;5237297;28;20021;-73
2023/08/05 07:25:29;;;;;;;6.88;5.88;;;;;;;18.56;100.00;101304.53;5250937;28;20115;-75
2023/08/05 07:28:00;;;;;;;6.17;5.40;;;;;;;18.56;100.00;101313.34;5253287;28;20481;-76
2023/08/05 07:30:31;;;;;;;8.70;5.43;;;;;;;18.70;100.00;101306.50;5243802;28;20130;-73
2023/08/05 07:33:04;;;;;;;7.00;5.73;;;;;;;18.63;100.00;101309.00;5250023;28;20061;-73
2023/08/05 07:35:36;;;;;;;6.80;5.97;;;;;;;18.68;100.00;101303.19;5248709;28;20021;-73
2023/08/05 07:38:10;;;;;;;6.97;5.53;;;;;;;18.83;100.00;101303.34;5242986;28;20040;-73
2023/08/05 07:40:41;;;;;;;6.53;5.80;;;;;;;18.92;100.00;101310.25;5236323;28;20087;-73
2023/08/05 07:43:15;;;;;;;6.13;5.53;;;;;;;19.01;100.00;101300.41;5239321;28;20478;-75
2023/08/05 07:45:46;;;;;;;8.07;6.13;;;;;;;19.01;100.00;101295.09;5242160;28;20061;-74
2023/08/05 07:48:18;;;;;;;7.72;6.93;;;;;;;19.18;100.00;101291.34;5241755;28;20575;-77
2023/08/05 07:50:49;;;;;;;6.97;6.17;;;;;;;19.15;100.00;101284.56;5238915;28;20029;-76
2023/08/05 07:53:23;;;;;;;6.83;6.10;;;;;;;18.98;100.00;101264.44;5237222;28;20032;-74
2023/08/05 07:55:55;;;;;;;6.78;6.00;;;;;;;19.14;100.00;101276.78;5223711;28;20052;-73
2023/08/05 07:58:27;;;;;;;6.97;5.88;;;;;;;19.29;100.00;101276.84;5238910;28;20033;-74
2023/08/05 08:00:59;;;;;;;5.53;5.00;;;;;;;19.70;100.00;101272.06;5238436;28;20033;-73
2023/08/05 08:03:30;;;;;;;7.53;5.13;;;;;;;19.92;100.00;101257.06;5240892;28;20048;-73
2023/08/05 08:06:01;;;;;;;6.50;5.57;;;;;;;20.05;100.00;101251.94;5237935;28;20081;-76
2023/08/05 08:08:32;;;;;;;5.63;4.67;;;;;;;20.09;100.00;101247.09;5242149;28;20036;-77
2023/08/05 08:11:04;;;;;;;6.03;4.03;;;;;;;20.14;100.00;101245.53;5238272;28;20394;-75
2023/08/05 08:13:36;;;;;;;6.73;3.83;;;;;;;20.10;100.00;101246.91;5239301;28;20043;-77
2023/08/05 08:16:07;;;;;;;4.13;3.40;;;;;;;20.18;100.00;101251.31;5238234;28;20074;-73
2023/08/05 08:18:39;;;;;;;4.97;3.35;;;;;;;20.20;100.00;101237.84;5240319;28;20283;-73
2023/08/05 08:21:10;;;;;;;7.10;3.27;;;;;;;20.25;100.00;101246.91;5234251;28;20108;-76
2023/08/05 08:23:41;;;;;;;5.30;3.30;;;;;;;20.04;100.00;101220.19;5216099;28;21015;-74
2023/08/05 08:26:12;;;;;;;5.57;3.40;;;;;;;20.05;100.00;101243.97;5215739;28;20032;-74
2023/08/05 08:28:44;;;;;;;4.90;3.20;;;;;;;20.10;100.00;101240.75;5240183;28;20037;-77
2023/08/05 08:31:15;;;;;;;7.13;3.53;;;;;;;20.08;100.00;101230.31;5228929;28;20069;-77
2023/08/05 08:33:46;;;;;;;6.17;2.63;;;;;;;20.17;100.00;101225.72;5235144;28;20046;-74
2023/08/05 08:36:18;;;;;;;4.87;2.73;;;;;;;20.50;100.00;101231.50;5236460;28;20037;-74
2023/08/05 08:38:49;;;;;;;5.27;3.00;;;;;;;20.52;100.00;101223.31;5233591;28;20033;-76
2023/08/05 08:41:21;;;;;;;3.93;2.43;;;;;;;20.46;100.00;101214.22;5237967;28;20036;-74
2023/08/05 08:43:54;;;;;;;3.80;2.47;;;;;;;20.59;100.00;101210.91;5239967;28;20029;-76
2023/08/05 08:46:26;;;;;;;5.25;2.10;;;;;;;20.85;100.00;101211.22;5235293;28;20714;-74
2023/08/05 08:48:57;;;;;;;5.20;2.30;;;;;;;21.08;100.00;101205.72;5238623;28;20026;-75
2023/08/05 08:51:29;;;;;;;3.67;2.00;;;;;;;21.44;100.00;101193.34;5238585;28;20018;-73
2023/08/05 08:54:03;;;;;;;4.80;2.83;;;;;;;21.38;100.00;101192.28;5241416;28;20033;-76
2023/08/05 08:56:35;;;;;;;4.82;2.83;;;;;;;21.33;100.00;101194.72;5242135;28;20028;-74
2023/08/05 08:59:07;;;;;;;;;;;;;;;22.04;100.00;101192.72;5222686;28;20063;-73
2023/08/05 09:01:42;;;;;;;4.80;2.65;;;;;;;21.43;100.00;101189.84;5241261;28;19924;-74
2023/08/05 09:04:15;;;;;;;3.20;2.63;;;;;;;21.38;100.00;101187.78;5238643;28;20018;-77
2023/08/05 09:06:47;;;;;;;4.22;2.50;;;;;;;21.52;100.00;101175.38;5242979;28;20021;-75
2023/08/05 09:09:18;;;;;;;7.15;3.22;;;;;;;21.44;100.00;101177.34;5242816;28;20033;-75
2023/08/05 09:11:49;;;;;;;5.17;2.80;;;;;;;21.60;100.00;101174.41;5241990;28;20474;-73
2023/08/05 09:14:21;;;;;;;3.80;2.60;;;;;;;21.33;100.00;101152.88;5224701;28;20502;-74
2023/08/05 09:16:59;;;;;;;4.63;2.87;;;;;;;21.48;100.00;101159.94;5224514;28;20025;-76
2023/08/05 09:19:31;;;;;;;4.93;2.50;;;;;;;21.21;100.00;101156.22;5239457;28;20041;-76
2023/08/05 09:22:05;;;;;;;3.80;2.20;;;;;;;21.41;100.00;101151.09;5237375;28;20037;-76
2023/08/05 09:24:36;;;;;;;3.30;2.45;;;;;;;21.27;100.00;101147.47;5241211;28;20567;-75
2023/08/05 09:27:08;;;;;;;4.10;3.00;;;;;;;21.28;100.00;101138.44;5223992;28;20024;-74
2023/08/05 09:29:39;;;;;;;4.80;2.60;;;;;;;21.36;100.00;101143.66;5219798;28;20537;-74
2023/08/05 09:32:11;;;;;;;3.47;2.80;;;;;;;21.39;100.00;101135.28;5205524;28;1042885;-75
2023/08/05 09:34:42;;;;;;;5.05;3.10;;;;;;;21.40;100.00;101141.44;5244049;28;20394;-75
2023/08/05 09:37:14;;;;;;;4.43;3.13;;;;;;;21.48;100.00;101136.81;5242729;28;20022;-75
2023/08/05 09:39:47;;;;;;;4.30;2.60;;;;;;;21.48;100.00;101136.81;5244196;28;20036;-75
2023/08/05 09:42:24;;;;;;;6.72;2.92;;;;;;;21.51;100.00;101133.72;5250083;28;20025;-75
2023/08/05 09:44:58;;;;;;;4.05;3.00;;;;;;;21.45;100.00;101131.84;5244819;28;20025;-75
2023/08/05 09:47:31;;;;;;;5.57;2.75;;;;;;;21.48;100.00;101131.47;5246440;28;20032;-74
2023/08/05 09:50:05;;;;;;;5.35;3.17;;;;;;;21.43;100.00;101122.38;5244652;28;20028;-75
2023/08/05 09:52:37;;;;;;;4.20;2.60;;;;;;;21.34;100.00;101105.72;5244533;28;20029;-75
2023/08/05 09:55:14;;;;;;;5.28;2.50;;;;;;;21.37;100.00;101113.34;5243598;28;20469;-75
2023/08/05 09:57:46;;;;;;;5.18;2.95;;;;;;;21.12;100.00;101103.06;5239807;28;20068;-75
2023/08/05 10:00:18;;;;;;;5.93;2.60;;;;;;;21.24;100.00;101105.22;5241855;28;20159;-76
2023/08/05 10:02:49;;;;;;;3.30;2.10;;;;;;;21.36;100.00;101106.34;5246724;28;20025;-75
2023/08/05 10:05:25;;;;;;;5.27;2.60;;;;;;;21.28;100.00;101082.47;5242464;28;20025;-74
2023/08/05 10:07:58;;;;;;;4.22;2.45;;;;;;;21.30;100.00;101099.13;5248182;28;20332;-75
2023/08/05 10:10:31;;;;;;;3.72;2.50;;;;;;;21.26;100.00;101096.00;5220378;28;20028;-74
2023/08/05 10:13:08;;;;;;;;;;;;;;;22.10;100.00;101095.06;5245672;28;20501;-75
2023/08/05 10:15:43;;;;;;;5.10;2.28;;;;;;;21.28;100.00;101088.63;5242841;28;19942;-75
2023/08/05 10:18:16;;;;;;;4.68;3.33;;;;;;;21.07;100.00;101089.53;5223827;28;20068;-76
2023/08/05 10:20:52;;;;;;;4.43;3.20;;;;;;;20.98;100.00;101080.00;5242063;28;20067;-75
2023/08/05 10:23:24;;;;;;;4.97;3.38;;;;;;;20.89;100.00;101086.50;5251400;28;20112;-76
2023/08/05 10:26:03;;;;;;;5.63;3.70;;;;;;;20.96;100.00;101074.06;5240779;28;20364;-75
2023/08/05 10:28:34;;;;;;;5.22;3.80;;;;;;;20.81;100.00;101087.44;5221901;28;20074;-75
2023/08/05 10:31:23;;;;;;;6.23;4.20;;;;;;;21.18;100.00;101082.84;5246054;28;20049;-75
2023/08/05 10:34:07;;;;;;;5.32;3.70;;;;;;;21.23;100.00;101076.91;5245830;28;20510;-75
2023/08/05 10:36:48;;;;;;;4.70;3.65;;;;;;;21.30;100.00;101073.28;5234959;28;20028;-75
2023/08/05 10:39:40;;;;;;;4.97;3.75;;;;;;;21.48;100.00;101067.50;5238241;28;20028;-75
2023/08/05 10:42:31;;;;;;;5.07;3.73;;;;;;;21.45;100.00;101075.06;5239254;28;20059;-74
2023/08/05 10:45:04;;;;;;;5.25;3.60;;;;;;;21.06;100.00;101068.38;5243354;28;20048;-76
2023/08/05 10:47:46;;;;;;;5.90;3.92;;;;;;;21.24;100.00;101054.59;5225066;28;20020;-75
2023/08/05 10:50:17;;;;;;;4.03;3.20;;;;;;;21.28;100.00;101069.16;5238487;28;20036;-75
2023/08/05 10:52:50;;;;;;;4.37;3.53;;;;;;;21.22;100.00;101068.09;5237741;28;20025;-76
2023/08/05 10:55:26;;;;;;;4.35;3.53;;;;;;;21.28;100.00;101072.63;5239654;28;20025;-75
2023/08/05 10:57:58;;;;;;;4.72;3.50;;;;;;;21.03;100.00;101061.63;5234873;28;20147;-74
2023/08/05 11:00:39;;;;;;;3.95;3.00;;;;;;;21.23;100.00;101055.59;5242541;28;20033;-76
2023/08/05 11:03:44;;;;;;;3.92;3.03;;;;;;;21.38;100.00;101053.69;5238650;28;20025;-75
2023/08/05 11:06:22;;;;;;;6.00;3.10;;;;;;;21.30;100.00;101054.63;5241157;28;20045;-75
2023/08/05 11:08:59;;;;;;;3.75;2.90;;;;;;;21.33;100.00;101059.59;5239681;28;20030;-75
2023/08/05 11:11:31;;;;;;;5.50;3.05;;;;;;;21.19;100.00;101051.69;5236911;28;20029;-75
2023/08/05 11:14:03;;;;;;;4.00;2.70;;;;;;;21.22;100.00;101046.78;5237857;28;20033;-75
2023/08/05 11:16:44;;;;;;;7.57;2.90;;;;;;;21.45;100.00;101038.56;5230775;28;20106;-75
2023/08/05 11:19:15;;;;;;;5.68;2.75;;;;;;;21.25;100.00;101050.88;5229076;28;20041;-76
2023/08/05 11:21:47;;;;;;;4.90;2.87;;;;;;;21.09;100.00;101036.84;5237597;28;20029;-75
2023/08/05 11:24:18;;;;;;;5.23;2.43;;;;;;;20.98;100.00;101023.25;5237599;28;20025;-74
2023/08/05 11:26:50;;;;;;;6.20;2.50;;;;;;;21.09;100.00;101014.72;5241462;28;20029;-74
2023/08/05 11:29:21;;;;;;;3.60;2.63;;;;;;;20.96;100.00;101020.78;5241488;28;20029;-75
2023/08/05 11:31:52;;;;;;;3.93;2.50;;;;;;;20.95;100.00;101021.81;5242363;28;20083;-75
2023/08/05 11:34:25;;;;;;;3.67;2.67;;;;;;;21.00;100.00;101013.25;5239388;28;20086;-74
2023/08/05 11:36:56;;;;;;;3.28;2.28;;;;;;;20.92;100.00;101006.22;5239229;28;20021;-75
2023/08/05 11:39:28;;;;;;;5.27;2.70;;;;;;;20.81;100.00;101004.91;5242072;28;20048;-74
2023/08/05 11:42:00;;;;;;;4.35;2.50;;;;;;;20.80;100.00;101003.28;5232865;28;20501;-75